EDT,Max TemperatureF,Mean TemperatureF,Min TemperatureF,Max Dew PointF,MeanDew PointF,Min DewpointF,Max Humidity, Mean Humidity, Min Humidity, Max Sea Level PressureIn, Mean Sea Level PressureIn, Min Sea Level PressureIn, Max VisibilityMiles, Mean VisibilityMiles, Min VisibilityMiles, Max Wind SpeedMPH, Mean Wind SpeedMPH, Max Gust SpeedMPH,PrecipitationIn, CloudCover, Events, WindDirDegrees
2013-8-1,81,72,63,68,66,62,100,81,62,30.04,29.99,29.95,10,6,0,13,4,18,0.06,6,Fog-Rain,310
2013-8-2,81,70,58,65,61,58,100,73,45,30.07,30.03,30.00,10,5,0,8,2,10,0.00,2,Fog,232
2013-8-3,83,75,66,70,67,64,93,76,58,30.06,30.01,29.97,10,9,2,15,5,20,0.06,4,Rain,270
2013-8-4,80,72,63,68,64,56,100,73,45,30.13,30.08,30.01,10,6,0,13,4,17,0.00,4,Fog,330
2013-8-5,82,70,58,63,58,55,93,69,45,30.10,30.05,29.98,10,10,10,9,2,12,0.00,1,,349
2013-8-6,81,73,65,70,66,62,100,80,60,30.00,29.97,29.95,10,10,8,10,2,13,0.00,6,,171
2013-8-7,82,77,71,73,71,68,94,82,69,30.05,29.98,29.91,10,9,1,15,4,20,0.17,6,Rain,191
2013-8-8,81,76,71,72,70,69,100,85,69,30.06,30.00,29.95,10,10,6,14,4,20,0.01,6,Rain,210
2013-8-9,88,79,70,72,70,67,100,80,59,30.07,30.02,29.96,10,10,2,26,5,32,0.20,4,Rain-Thunderstorm,230
2013-8-10,81,76,70,73,70,68,100,85,69,30.16,30.10,30.04,10,9,2,14,3,18,0.28,6,Rain-Thunderstorm,242
2013-8-11,85,78,71,72,70,69,100,81,61,30.17,30.12,30.05,10,9,2,12,4,15,0.27,6,Rain-Thunderstorm,224
2013-8-12,82,76,69,73,71,66,100,83,65,30.12,30.06,29.94,10,6,1,14,4,18,0.30,6,Rain-Thunderstorm,237
2013-8-13,80,73,66,70,68,63,100,81,62,29.99,29.94,29.89,10,8,1,14,5,18,1.12,7,Rain-Thunderstorm,283
2013-8-14,73,65,57,61,54,51,93,71,49,30.12,30.07,29.99,10,10,10,15,7,20,0.00,1,,34
2013-8-15,78,66,53,60,55,50,89,72,54,30.12,30.09,30.04,10,10,10,8,4,13,0.00,1,,29
2013-8-16,80,71,61,66,62,59,93,74,54,30.14,30.10,30.04,10,9,2,9,3,13,0.31,6,Rain-Thunderstorm,61
2013-8-17,76,70,64,65,61,59,93,76,58,30.16,30.12,30.10,10,10,9,9,2,20,0.03,1,,70
2013-8-18,76,70,63,67,65,62,100,85,69,30.22,30.17,30.10,10,7,2,7,2,16,0.23,8,Rain,213
2013-8-19,82,74,65,70,66,64,100,79,58,30.18,30.13,30.06,10,10,2,8,2,10,0.02,6,Rain,229
2013-8-20,84,75,65,70,66,63,100,79,58,30.21,30.14,30.10,10,7,0,9,1,12,0.00,4,Fog,262
2013-8-21,82,76,69,72,68,63,97,78,58,30.23,30.17,30.10,10,7,0,15,3,23,0.23,4,Fog-Rain-Thunderstorm,222
2013-8-22,85,76,67,71,68,64,97,78,59,30.20,30.14,30.05,10,6,1,10,3,13,0.00,4,,229
2013-8-23,88,78,68,72,67,64,97,76,55,30.12,30.07,30.02,10,6,0,10,2,16,T,3,Fog-Rain,37
2013-8-24,87,75,63,67,62,57,93,65,37,30.25,30.19,30.11,10,9,1,10,3,14,0.00,0,,55
2013-8-25,84,72,60,67,62,58,93,72,51,30.36,30.29,30.25,10,10,8,9,2,17,0.00,2,,192
2013-8-26,85,74,62,67,64,60,93,72,51,30.31,30.24,30.14,10,8,2,12,2,25,0.00,2,,251
2013-8-27,87,77,66,70,67,63,93,74,55,30.15,30.10,30.03,10,8,4,12,3,16,0.00,3,,266
2013-8-28,88,79,70,72,69,66,97,76,55,30.09,30.03,29.97,10,7,2,13,4,17,0.00,3,,251
2013-8-29,89,80,71,73,70,67,90,70,50,30.05,29.99,29.95,10,9,3,12,3,16,0.00,4,,341
2013-8-30,90,79,67,70,67,64,97,74,50,30.04,29.97,29.90,10,6,0,10,2,22,0.00,2,Fog,264
2013-8-31,92,80,67,73,69,63,93,70,47,29.98,29.92,29.82,10,7,2,29,5,39,0.30,2,Rain-Thunderstorm,230